sensor_id;sensor_type;location;lat;lon;timestamp;pressure;altitude;pressure_sealevel;temperature;humidity
58979;BME280;44763;50.464;30.612;2023-05-19T00:01:18;100731.69;;;19.79;49.20
58979;BME280;44763;50.464;30.612;2023-05-19T00:04:02;100731.55;;;19.78;49.14
58979;BME280;44763;50.464;30.612;2023-05-19T00:06:31;100727.78;;;19.73;49.69
58979;BME280;44763;50.464;30.612;2023-05-19T00:09:00;100731.53;;;19.71;49.91
58979;BME280;44763;50.464;30.612;2023-05-19T00:11:28;100732.60;;;19.68;49.94
58979;BME280;44763;50.464;30.612;2023-05-19T00:13:57;100740.30;;;19.65;50.03
58979;BME280;44763;50.464;30.612;2023-05-19T00:16:25;100739.34;;;19.64;50.26
58979;BME280;44763;50.464;30.612;2023-05-19T00:18:52;100728.75;;;19.56;50.33
58979;BME280;44763;50.464;30.612;2023-05-19T00:21:19;100739.63;;;19.61;50.42
58979;BME280;44763;50.464;30.612;2023-05-19T00:23:46;100738.19;;;19.60;50.54
58979;BME280;44763;50.464;30.612;2023-05-19T00:26:13;100738.04;;;19.58;50.87
58979;BME280;44763;50.464;30.612;2023-05-19T00:28:41;100735.95;;;19.56;50.90
58979;BME280;44763;50.464;30.612;2023-05-19T00:31:08;100745.08;;;19.56;50.93
58979;BME280;44763;50.464;30.612;2023-05-19T00:33:35;100745.59;;;19.55;51.12
58979;BME280;44763;50.464;30.612;2023-05-19T00:36:02;100744.82;;;19.54;51.24
58979;BME280;44763;50.464;30.612;2023-05-19T00:38:30;100746.11;;;19.54;51.28
58979;BME280;44763;50.464;30.612;2023-05-19T00:41:00;100747.30;;;19.54;51.49
58979;BME280;44763;50.464;30.612;2023-05-19T00:43:27;100751.74;;;19.54;51.59
58979;BME280;44763;50.464;30.612;2023-05-19T00:45:56;100754.59;;;19.54;51.96
58979;BME280;44763;50.464;30.612;2023-05-19T00:48:24;100755.09;;;19.51;52.26
58979;BME280;44763;50.464;30.612;2023-05-19T00:50:52;100757.19;;;19.49;53.03
58979;BME280;44763;50.464;30.612;2023-05-19T00:53:22;100761.70;;;19.42;54.98
58979;BME280;44763;50.464;30.612;2023-05-19T00:55:49;100765.11;;;19.32;55.68
58979;BME280;44763;50.464;30.612;2023-05-19T00:58:17;100761.55;;;19.23;55.97
58979;BME280;44763;50.464;30.612;2023-05-19T01:00:44;100762.73;;;19.18;55.72
58979;BME280;44763;50.464;30.612;2023-05-19T01:03:11;100764.59;;;19.14;56.31
58979;BME280;44763;50.464;30.612;2023-05-19T01:05:41;100763.67;;;19.10;56.90
58979;BME280;44763;50.464;30.612;2023-05-19T01:08:10;100765.13;;;19.07;57.02
58979;BME280;44763;50.464;30.612;2023-05-19T01:10:37;100770.62;;;19.04;57.47
58979;BME280;44763;50.464;30.612;2023-05-19T01:13:04;100772.49;;;18.99;57.60
58979;BME280;44763;50.464;30.612;2023-05-19T01:18:51;100780.67;;;18.89;56.98
58979;BME280;44763;50.464;30.612;2023-05-19T01:32:49;100791.89;;;18.90;57.58
58979;BME280;44763;50.464;30.612;2023-05-19T01:35:22;100790.48;;;18.90;57.70
58979;BME280;44763;50.464;30.612;2023-05-19T01:37:56;100795.13;;;18.90;58.04
58979;BME280;44763;50.464;30.612;2023-05-19T01:40:24;100795.27;;;18.89;58.38
58979;BME280;44763;50.464;30.612;2023-05-19T01:42:53;100796.86;;;18.88;58.65
58979;BME280;44763;50.464;30.612;2023-05-19T01:45:28;100796.19;;;18.86;59.15
58979;BME280;44763;50.464;30.612;2023-05-19T01:47:57;100796.13;;;18.84;59.64
58979;BME280;44763;50.464;30.612;2023-05-19T01:50:24;100800.65;;;18.82;60.14
58979;BME280;44763;50.464;30.612;2023-05-19T01:52:52;100799.27;;;18.79;60.64
58979;BME280;44763;50.464;30.612;2023-05-19T01:55:19;100802.39;;;18.77;61.10
58979;BME280;44763;50.464;30.612;2023-05-19T01:58:01;100793.59;;;18.75;61.48
58979;BME280;44763;50.464;30.612;2023-05-19T02:00:51;100792.81;;;18.73;61.72
58979;BME280;44763;50.464;30.612;2023-05-19T02:03:41;100791.69;;;18.68;62.41
58979;BME280;44763;50.464;30.612;2023-05-19T02:11:26;100807.85;;;18.71;64.41
58979;BME280;44763;50.464;30.612;2023-05-19T02:13:56;100800.95;;;18.70;64.51
58979;BME280;44763;50.464;30.612;2023-05-19T02:16:27;100795.38;;;18.69;64.77
58979;BME280;44763;50.464;30.612;2023-05-19T02:18:54;100796.30;;;18.69;64.91
58979;BME280;44763;50.464;30.612;2023-05-19T02:21:21;100801.09;;;18.70;65.03
58979;BME280;44763;50.464;30.612;2023-05-19T02:23:49;100803.02;;;18.72;65.07
58979;BME280;44763;50.464;30.612;2023-05-19T02:26:19;100803.83;;;18.74;65.24
58979;BME280;44763;50.464;30.612;2023-05-19T02:28:45;100804.80;;;18.75;65.67
58979;BME280;44763;50.464;30.612;2023-05-19T02:31:12;100807.08;;;18.76;66.44
58979;BME280;44763;50.464;30.612;2023-05-19T02:33:38;100809.41;;;18.75;66.81
58979;BME280;44763;50.464;30.612;2023-05-19T02:36:05;100811.42;;;18.73;66.88
58979;BME280;44763;50.464;30.612;2023-05-19T02:38:32;100810.27;;;18.73;66.81
58979;BME280;44763;50.464;30.612;2023-05-19T02:40:58;100813.89;;;18.73;67.06
58979;BME280;44763;50.464;30.612;2023-05-19T02:43:25;100815.08;;;18.73;67.09
58979;BME280;44763;50.464;30.612;2023-05-19T02:45:52;100815.59;;;18.73;67.30
58979;BME280;44763;50.464;30.612;2023-05-19T02:48:19;100818.45;;;18.73;67.27
58979;BME280;44763;50.464;30.612;2023-05-19T02:50:46;100812.94;;;18.67;67.48
58979;BME280;44763;50.464;30.612;2023-05-19T02:53:12;100801.40;;;18.60;67.74
58979;BME280;44763;50.464;30.612;2023-05-19T02:55:39;100828.56;;;18.72;67.83
58979;BME280;44763;50.464;30.612;2023-05-19T02:58:05;100828.04;;;18.71;67.85
58979;BME280;44763;50.464;30.612;2023-05-19T03:00:33;100832.21;;;18.69;68.15
58979;BME280;44763;50.464;30.612;2023-05-19T03:03:00;100836.73;;;18.68;68.32
58979;BME280;44763;50.464;30.612;2023-05-19T03:05:28;100837.20;;;18.66;68.54
58979;BME280;44763;50.464;30.612;2023-05-19T03:07:55;100832.53;;;18.65;68.54
58979;BME280;44763;50.464;30.612;2023-05-19T03:10:22;100844.66;;;18.64;68.68
58979;BME280;44763;50.464;30.612;2023-05-19T03:12:49;100841.69;;;18.64;68.87
58979;BME280;44763;50.464;30.612;2023-05-19T03:15:16;100843.33;;;18.62;69.10
58979;BME280;44763;50.464;30.612;2023-05-19T03:17:44;100849.91;;;18.60;69.22
58979;BME280;44763;50.464;30.612;2023-05-19T03:20:11;100845.75;;;18.58;69.18
58979;BME280;44763;50.464;30.612;2023-05-19T03:22:38;100845.77;;;18.57;69.35
58979;BME280;44763;50.464;30.612;2023-05-19T03:25:05;100843.41;;;18.56;69.55
58979;BME280;44763;50.464;30.612;2023-05-19T03:27:32;100844.84;;;18.54;69.50
58979;BME280;44763;50.464;30.612;2023-05-19T03:29:58;100844.73;;;18.54;69.34
58979;BME280;44763;50.464;30.612;2023-05-19T03:32:25;100844.48;;;18.55;69.35
58979;BME280;44763;50.464;30.612;2023-05-19T03:34:52;100842.77;;;18.56;69.20
58979;BME280;44763;50.464;30.612;2023-05-19T03:37:19;100841.60;;;18.58;69.26
58979;BME280;44763;50.464;30.612;2023-05-19T03:39:45;100844.92;;;18.60;69.08
58979;BME280;44763;50.464;30.612;2023-05-19T03:42:13;100846.60;;;18.62;69.10
58979;BME280;44763;50.464;30.612;2023-05-19T03:44:39;100842.19;;;18.64;68.91
58979;BME280;44763;50.464;30.612;2023-05-19T03:47:06;100842.96;;;18.67;68.76
58979;BME280;44763;50.464;30.612;2023-05-19T03:50:00;100844.48;;;18.70;68.62
58979;BME280;44763;50.464;30.612;2023-05-19T03:52:46;100851.33;;;18.71;68.53
58979;BME280;44763;50.464;30.612;2023-05-19T03:55:25;100852.44;;;18.72;68.37
58979;BME280;44763;50.464;30.612;2023-05-19T03:57:55;100852.96;;;18.74;68.32
58979;BME280;44763;50.464;30.612;2023-05-19T04:00:22;100855.71;;;18.76;68.08
58979;BME280;44763;50.464;30.612;2023-05-19T04:02:50;100857.43;;;18.77;68.07
58979;BME280;44763;50.464;30.612;2023-05-19T04:05:17;100856.67;;;18.79;68.11
58979;BME280;44763;50.464;30.612;2023-05-19T04:07:43;100860.15;;;18.81;68.00
58979;BME280;44763;50.464;30.612;2023-05-19T04:10:12;100856.77;;;18.82;67.96
58979;BME280;44763;50.464;30.612;2023-05-19T04:12:39;100853.40;;;18.83;67.89
58979;BME280;44763;50.464;30.612;2023-05-19T04:15:06;100853.24;;;18.85;67.78
58979;BME280;44763;50.464;30.612;2023-05-19T04:17:33;100854.00;;;18.88;67.65
58979;BME280;44763;50.464;30.612;2023-05-19T04:20:00;100852.45;;;18.88;67.78
58979;BME280;44763;50.464;30.612;2023-05-19T04:22:28;100857.10;;;18.89;67.79
58979;BME280;44763;50.464;30.612;2023-05-19T04:24:54;100862.13;;;18.89;67.97
58979;BME280;44763;50.464;30.612;2023-05-19T04:27:21;100869.52;;;18.89;67.92
58979;BME280;44763;50.464;30.612;2023-05-19T04:29:49;100874.63;;;18.87;67.91
58979;BME280;44763;50.464;30.612;2023-05-19T04:32:15;100869.14;;;18.83;68.14
58979;BME280;44763;50.464;30.612;2023-05-19T04:34:45;100873.55;;;18.83;68.22
58979;BME280;44763;50.464;30.612;2023-05-19T04:37:14;100881.13;;;18.84;68.29
58979;BME280;44763;50.464;30.612;2023-05-19T04:39:45;100885.70;;;18.85;68.97
58979;BME280;44763;50.464;30.612;2023-05-19T04:42:12;100888.81;;;18.82;69.31
58979;BME280;44763;50.464;30.612;2023-05-19T04:44:39;100888.14;;;18.78;69.53
58979;BME280;44763;50.464;30.612;2023-05-19T04:47:06;100891.65;;;18.76;69.61
58979;BME280;44763;50.464;30.612;2023-05-19T04:49:34;100891.23;;;18.77;69.34
58979;BME280;44763;50.464;30.612;2023-05-19T04:52:08;100890.57;;;18.79;69.08
58979;BME280;44763;50.464;30.612;2023-05-19T04:54:40;100891.70;;;18.79;69.23
58979;BME280;44763;50.464;30.612;2023-05-19T04:57:09;100887.02;;;18.78;69.40
58979;BME280;44763;50.464;30.612;2023-05-19T04:59:37;100883.39;;;18.78;69.02
58979;BME280;44763;50.464;30.612;2023-05-19T05:02:05;100883.80;;;18.81;68.82
58979;BME280;44763;50.464;30.612;2023-05-19T05:04:34;100893.30;;;18.82;68.48
58979;BME280;44763;50.464;30.612;2023-05-19T05:07:01;100891.98;;;18.84;68.73
58979;BME280;44763;50.464;30.612;2023-05-19T05:11:17;100896.19;;;18.90;68.56
58979;BME280;44763;50.464;30.612;2023-05-19T05:13:45;100897.83;;;18.88;68.48
58979;BME280;44763;50.464;30.612;2023-05-19T05:16:13;100886.67;;;18.81;68.54
58979;BME280;44763;50.464;30.612;2023-05-19T05:18:41;100885.77;;;18.80;68.47
58979;BME280;44763;50.464;30.612;2023-05-19T05:21:11;100901.63;;;18.87;68.35
58979;BME280;44763;50.464;30.612;2023-05-19T05:23:39;100908.30;;;18.85;67.91
58979;BME280;44763;50.464;30.612;2023-05-19T05:28:14;100909.70;;;18.83;67.50
58979;BME280;44763;50.464;30.612;2023-05-19T05:30:41;100913.77;;;18.80;67.63
58979;BME280;44763;50.464;30.612;2023-05-19T05:33:09;100916.58;;;18.80;67.53
58979;BME280;44763;50.464;30.612;2023-05-19T05:35:38;100918.96;;;18.80;67.32
58979;BME280;44763;50.464;30.612;2023-05-19T05:38:05;100922.89;;;18.80;67.44
58979;BME280;44763;50.464;30.612;2023-05-19T05:40:33;100922.27;;;18.81;67.19
58979;BME280;44763;50.464;30.612;2023-05-19T05:43:00;100926.64;;;18.83;67.08
58979;BME280;44763;50.464;30.612;2023-05-19T05:45:28;100927.31;;;18.86;66.94
58979;BME280;44763;50.464;30.612;2023-05-19T05:47:57;100931.36;;;18.88;66.62
58979;BME280;44763;50.464;30.612;2023-05-19T05:50:24;100933.89;;;18.89;66.63
58979;BME280;44763;50.464;30.612;2023-05-19T05:52:52;100934.59;;;18.92;66.23
58979;BME280;44763;50.464;30.612;2023-05-19T05:55:20;100937.89;;;18.94;66.08
58979;BME280;44763;50.464;30.612;2023-05-19T05:57:48;100941.39;;;18.97;66.25
58979;BME280;44763;50.464;30.612;2023-05-19T06:00:16;100944.03;;;19.01;66.23
58979;BME280;44763;50.464;30.612;2023-05-19T06:02:48;100943.58;;;19.04;66.51
58979;BME280;44763;50.464;30.612;2023-05-19T06:05:17;100944.25;;;19.05;66.80
58979;BME280;44763;50.464;30.612;2023-05-19T06:07:45;100940.91;;;19.05;67.00
58979;BME280;44763;50.464;30.612;2023-05-19T06:10:16;100941.79;;;19.04;67.15
58979;BME280;44763;50.464;30.612;2023-05-19T06:12:43;100939.86;;;19.02;67.30
58979;BME280;44763;50.464;30.612;2023-05-19T06:15:10;100942.73;;;19.01;67.53
58979;BME280;44763;50.464;30.612;2023-05-19T06:17:46;100945.20;;;19.00;67.21
58979;BME280;44763;50.464;30.612;2023-05-19T06:20:14;100945.11;;;19.01;67.02
58979;BME280;44763;50.464;30.612;2023-05-19T06:22:41;100948.95;;;19.03;67.25
58979;BME280;44763;50.464;30.612;2023-05-19T06:25:09;100949.19;;;19.03;67.15
58979;BME280;44763;50.464;30.612;2023-05-19T06:27:36;100950.98;;;19.06;66.63
58979;BME280;44763;50.464;30.612;2023-05-19T06:30:03;100950.58;;;19.11;66.83
58979;BME280;44763;50.464;30.612;2023-05-19T06:32:33;100953.41;;;19.19;66.69
58979;BME280;44763;50.464;30.612;2023-05-19T06:35:01;100956.19;;;19.24;66.13
58979;BME280;44763;50.464;30.612;2023-05-19T06:37:28;100953.13;;;19.29;65.96
58979;BME280;44763;50.464;30.612;2023-05-19T06:39:55;100953.17;;;19.32;66.24
58979;BME280;44763;50.464;30.612;2023-05-19T06:42:23;100954.02;;;19.34;66.24
58979;BME280;44763;50.464;30.612;2023-05-19T06:45:05;100951.67;;;19.35;66.25
58979;BME280;44763;50.464;30.612;2023-05-19T06:47:33;100952.80;;;19.35;66.21
58979;BME280;44763;50.464;30.612;2023-05-19T06:50:00;100956.54;;;19.37;65.48
58979;BME280;44763;50.464;30.612;2023-05-19T06:52:29;100956.48;;;19.41;64.82
58979;BME280;44763;50.464;30.612;2023-05-19T06:54:56;100952.48;;;19.49;64.92
58979;BME280;44763;50.464;30.612;2023-05-19T06:57:23;100957.73;;;19.59;64.36
58979;BME280;44763;50.464;30.612;2023-05-19T06:59:50;100957.23;;;19.70;63.04
58979;BME280;44763;50.464;30.612;2023-05-19T07:02:17;100960.30;;;19.77;62.84
58979;BME280;44763;50.464;30.612;2023-05-19T07:04:44;100961.04;;;19.83;62.58
58979;BME280;44763;50.464;30.612;2023-05-19T07:07:12;100966.67;;;19.89;61.30
58979;BME280;44763;50.464;30.612;2023-05-19T07:09:39;100963.15;;;19.93;61.46
58979;BME280;44763;50.464;30.612;2023-05-19T07:12:06;100964.25;;;20.01;61.75
58979;BME280;44763;50.464;30.612;2023-05-19T07:14:34;100966.63;;;20.13;61.50
58979;BME280;44763;50.464;30.612;2023-05-19T07:17:02;100958.55;;;20.29;60.83
58979;BME280;44763;50.464;30.612;2023-05-19T07:19:29;100955.02;;;20.44;60.49
58979;BME280;44763;50.464;30.612;2023-05-19T07:21:57;100959.35;;;20.55;59.68
58979;BME280;44763;50.464;30.612;2023-05-19T07:24:25;100956.63;;;20.63;59.40
58979;BME280;44763;50.464;30.612;2023-05-19T07:26:53;100965.40;;;20.80;59.22
58979;BME280;44763;50.464;30.612;2023-05-19T07:29:19;100967.78;;;21.00;58.44
58979;BME280;44763;50.464;30.612;2023-05-19T07:31:47;100975.79;;;21.16;57.04
58979;BME280;44763;50.464;30.612;2023-05-19T07:34:13;100976.50;;;21.26;56.59
58979;BME280;44763;50.464;30.612;2023-05-19T07:36:40;100969.58;;;21.33;56.84
58979;BME280;44763;50.464;30.612;2023-05-19T07:39:07;100971.23;;;21.40;57.21
58979;BME280;44763;50.464;30.612;2023-05-19T07:41:34;100971.12;;;21.51;56.90
58979;BME280;44763;50.464;30.612;2023-05-19T07:44:02;100969.92;;;21.64;56.28
58979;BME280;44763;50.464;30.612;2023-05-19T07:46:33;100968.23;;;21.67;56.28
58979;BME280;44763;50.464;30.612;2023-05-19T07:49:01;100968.89;;;21.71;56.07
58979;BME280;44763;50.464;30.612;2023-05-19T07:51:27;100967.76;;;21.78;55.44
58979;BME280;44763;50.464;30.612;2023-05-19T07:53:55;100965.40;;;21.87;55.11
58979;BME280;44763;50.464;30.612;2023-05-19T07:56:22;100961.33;;;21.88;55.30
58979;BME280;44763;50.464;30.612;2023-05-19T07:58:50;100963.38;;;21.88;55.19
58979;BME280;44763;50.464;30.612;2023-05-19T08:01:17;100963.11;;;21.91;55.42
58979;BME280;44763;50.464;30.612;2023-05-19T08:03:44;100961.48;;;21.95;55.61
58979;BME280;44763;50.464;30.612;2023-05-19T08:06:10;100962.86;;;22.07;55.20
58979;BME280;44763;50.464;30.612;2023-05-19T08:08:37;100961.84;;;22.17;54.39
58979;BME280;44763;50.464;30.612;2023-05-19T08:11:05;100960.65;;;22.21;54.17
58979;BME280;44763;50.464;30.612;2023-05-19T08:13:32;100960.27;;;22.27;53.94
58979;BME280;44763;50.464;30.612;2023-05-19T08:16:00;100957.60;;;22.38;54.06
58979;BME280;44763;50.464;30.612;2023-05-19T08:18:27;100956.23;;;22.45;52.46
58979;BME280;44763;50.464;30.612;2023-05-19T08:20:54;100960.33;;;22.47;51.44
58979;BME280;44763;50.464;30.612;2023-05-19T08:23:21;100959.00;;;22.50;50.95
58979;BME280;44763;50.464;30.612;2023-05-19T08:25:48;100958.85;;;22.55;51.69
58979;BME280;44763;50.464;30.612;2023-05-19T08:28:15;100963.17;;;22.58;52.26
58979;BME280;44763;50.464;30.612;2023-05-19T08:30:42;100964.95;;;22.57;52.38
58979;BME280;44763;50.464;30.612;2023-05-19T08:33:09;100965.41;;;22.50;53.36
58979;BME280;44763;50.464;30.612;2023-05-19T08:35:36;100968.13;;;22.41;54.49
58979;BME280;44763;50.464;30.612;2023-05-19T08:38:03;100967.45;;;22.40;54.50
58979;BME280;44763;50.464;30.612;2023-05-19T08:40:32;100963.60;;;22.40;54.29
58979;BME280;44763;50.464;30.612;2023-05-19T08:43:00;100961.92;;;22.40;53.80
58979;BME280;44763;50.464;30.612;2023-05-19T08:45:29;100960.45;;;22.40;53.40
58979;BME280;44763;50.464;30.612;2023-05-19T08:47:57;100967.86;;;22.55;53.38
58979;BME280;44763;50.464;30.612;2023-05-19T08:50:28;100966.55;;;22.59;53.61
58979;BME280;44763;50.464;30.612;2023-05-19T08:53:19;100966.05;;;22.66;54.30
58979;BME280;44763;50.464;30.612;2023-05-19T08:56:04;100975.63;;;22.68;54.38
58979;BME280;44763;50.464;30.612;2023-05-19T08:58:38;100975.58;;;22.55;54.47
58979;BME280;44763;50.464;30.612;2023-05-19T09:01:12;100973.51;;;22.45;54.80
58979;BME280;44763;50.464;30.612;2023-05-19T09:03:40;100971.23;;;22.50;55.16
58979;BME280;44763;50.464;30.612;2023-05-19T09:06:09;100972.13;;;22.52;55.48
58979;BME280;44763;50.464;30.612;2023-05-19T09:08:40;100972.75;;;22.46;54.74
58979;BME280;44763;50.464;30.612;2023-05-19T09:11:09;100971.85;;;22.39;54.20
58979;BME280;44763;50.464;30.612;2023-05-19T09:13:36;100973.87;;;22.40;54.05
58979;BME280;44763;50.464;30.612;2023-05-19T09:16:04;100972.14;;;22.49;52.22
58979;BME280;44763;50.464;30.612;2023-05-19T09:18:31;100978.70;;;22.57;48.39
58979;BME280;44763;50.464;30.612;2023-05-19T09:20:59;100980.98;;;22.53;46.99
58979;BME280;44763;50.464;30.612;2023-05-19T09:23:30;100976.73;;;22.44;48.17
58979;BME280;44763;50.464;30.612;2023-05-19T09:26:03;100968.33;;;22.40;47.84
58979;BME280;44763;50.464;30.612;2023-05-19T09:28:35;100965.90;;;22.46;48.12
58979;BME280;44763;50.464;30.612;2023-05-19T09:31:08;100964.15;;;22.53;47.85
58979;BME280;44763;50.464;30.612;2023-05-19T09:33:38;100963.68;;;22.56;48.00
58979;BME280;44763;50.464;30.612;2023-05-19T09:36:07;100962.24;;;22.53;49.87
58979;BME280;44763;50.464;30.612;2023-05-19T09:38:37;100961.05;;;22.53;49.30
58979;BME280;44763;50.464;30.612;2023-05-19T09:41:06;100965.03;;;22.54;47.95
58979;BME280;44763;50.464;30.612;2023-05-19T09:43:33;100964.20;;;22.53;48.41
58979;BME280;44763;50.464;30.612;2023-05-19T09:46:05;100961.88;;;22.50;50.17
58979;BME280;44763;50.464;30.612;2023-05-19T09:48:36;100963.19;;;22.50;51.51
58979;BME280;44763;50.464;30.612;2023-05-19T09:51:06;100969.25;;;22.45;51.99
58979;BME280;44763;50.464;30.612;2023-05-19T09:53:34;100965.64;;;22.38;52.20
58979;BME280;44763;50.464;30.612;2023-05-19T09:56:01;100965.44;;;22.35;52.52
58979;BME280;44763;50.464;30.612;2023-05-19T09:58:31;100967.23;;;22.27;52.95
58979;BME280;44763;50.464;30.612;2023-05-19T10:01:02;100977.20;;;22.24;52.73
58979;BME280;44763;50.464;30.612;2023-05-19T10:03:30;100969.67;;;22.21;53.17
58979;BME280;44763;50.464;30.612;2023-05-19T10:06:00;100964.67;;;22.21;53.63
58979;BME280;44763;50.464;30.612;2023-05-19T10:08:27;100973.23;;;22.24;54.15
58979;BME280;44763;50.464;30.612;2023-05-19T10:10:56;100961.86;;;22.22;54.29
58979;BME280;44763;50.464;30.612;2023-05-19T10:13:24;100961.18;;;22.23;53.94
58979;BME280;44763;50.464;30.612;2023-05-19T10:15:52;100956.38;;;22.25;53.93
58979;BME280;44763;50.464;30.612;2023-05-19T10:18:25;100961.33;;;22.27;53.78
58979;BME280;44763;50.464;30.612;2023-05-19T10:20:56;100960.45;;;22.30;53.61
58979;BME280;44763;50.464;30.612;2023-05-19T10:23:24;100964.08;;;22.34;52.70
58979;BME280;44763;50.464;30.612;2023-05-19T10:25:55;100964.41;;;22.39;52.42
58979;BME280;44763;50.464;30.612;2023-05-19T10:28:23;100968.60;;;22.45;51.34
58979;BME280;44763;50.464;30.612;2023-05-19T10:30:57;100963.92;;;22.48;51.48
58979;BME280;44763;50.464;30.612;2023-05-19T10:33:37;100959.98;;;22.54;51.24
58979;BME280;44763;50.464;30.612;2023-05-19T10:36:21;100950.80;;;22.59;51.11
58979;BME280;44763;50.464;30.612;2023-05-19T10:39:19;100954.65;;;22.54;51.02
58979;BME280;44763;50.464;30.612;2023-05-19T10:42:14;100952.58;;;22.49;49.62
58979;BME280;44763;50.464;30.612;2023-05-19T10:45:08;100959.00;;;22.46;48.56
58979;BME280;44763;50.464;30.612;2023-05-19T10:47:42;100956.83;;;22.38;48.72
58979;BME280;44763;50.464;30.612;2023-05-19T10:50:10;100960.32;;;22.30;49.76
58979;BME280;44763;50.464;30.612;2023-05-19T10:52:38;100954.78;;;22.29;50.61
58979;BME280;44763;50.464;30.612;2023-05-19T10:55:11;100951.29;;;22.37;49.84
58979;BME280;44763;50.464;30.612;2023-05-19T10:57:53;100955.45;;;22.48;48.88
58979;BME280;44763;50.464;30.612;2023-05-19T11:00:27;100952.34;;;22.56;47.91
58979;BME280;44763;50.464;30.612;2023-05-19T11:03:13;100952.09;;;22.58;48.29
58979;BME280;44763;50.464;30.612;2023-05-19T11:05:41;100958.47;;;22.56;49.16
58979;BME280;44763;50.464;30.612;2023-05-19T11:08:11;100958.02;;;22.49;49.43
58979;BME280;44763;50.464;30.612;2023-05-19T11:10:42;100964.19;;;22.47;49.60
58979;BME280;44763;50.464;30.612;2023-05-19T11:13:18;100971.69;;;22.39;50.07
58979;BME280;44763;50.464;30.612;2023-05-19T11:15:45;100962.70;;;22.20;51.06
58979;BME280;44763;50.464;30.612;2023-05-19T11:18:13;100960.44;;;22.06;52.64
58979;BME280;44763;50.464;30.612;2023-05-19T11:20:43;100970.11;;;21.98;53.14
58979;BME280;44763;50.464;30.612;2023-05-19T11:23:24;100964.77;;;21.90;52.86
58979;BME280;44763;50.464;30.612;2023-05-19T11:25:51;100971.25;;;21.83;52.45
58979;BME280;44763;50.464;30.612;2023-05-19T11:28:22;100971.55;;;21.73;53.66
58979;BME280;44763;50.464;30.612;2023-05-19T11:30:55;100968.78;;;21.65;54.25
58979;BME280;44763;50.464;30.612;2023-05-19T11:33:24;100970.36;;;21.62;54.80
58979;BME280;44763;50.464;30.612;2023-05-19T11:35:56;100969.91;;;21.60;55.64
58979;BME280;44763;50.464;30.612;2023-05-19T11:38:25;100969.38;;;21.58;55.47
58979;BME280;44763;50.464;30.612;2023-05-19T11:40:52;100971.89;;;21.56;55.16
58979;BME280;44763;50.464;30.612;2023-05-19T11:43:24;100972.70;;;21.59;55.29
58979;BME280;44763;50.464;30.612;2023-05-19T11:45:54;100973.34;;;21.62;56.10
58979;BME280;44763;50.464;30.612;2023-05-19T11:48:23;100976.39;;;21.62;57.37
58979;BME280;44763;50.464;30.612;2023-05-19T11:50:50;100978.20;;;21.59;56.70
58979;BME280;44763;50.464;30.612;2023-05-19T11:53:18;100981.80;;;21.55;56.80
58979;BME280;44763;50.464;30.612;2023-05-19T11:55:46;100982.77;;;21.45;57.95
58979;BME280;44763;50.464;30.612;2023-05-19T11:58:15;100979.32;;;21.35;58.76
58979;BME280;44763;50.464;30.612;2023-05-19T12:00:43;100984.92;;;21.30;59.23
58979;BME280;44763;50.464;30.612;2023-05-19T12:03:13;100996.98;;;21.28;59.81
58979;BME280;44763;50.464;30.612;2023-05-19T12:05:44;100992.88;;;21.22;59.46
58979;BME280;44763;50.464;30.612;2023-05-19T12:08:19;100993.25;;;21.17;58.91
58979;BME280;44763;50.464;30.612;2023-05-19T12:10:47;100984.27;;;21.14;59.58
58979;BME280;44763;50.464;30.612;2023-05-19T12:13:18;100981.30;;;21.15;60.32
58979;BME280;44763;50.464;30.612;2023-05-19T12:15:45;100982.59;;;21.17;59.87
58979;BME280;44763;50.464;30.612;2023-05-19T12:18:11;100979.27;;;21.16;59.40
58979;BME280;44763;50.464;30.612;2023-05-19T12:20:38;100977.90;;;21.13;59.70
58979;BME280;44763;50.464;30.612;2023-05-19T12:23:05;100978.07;;;21.13;59.88
58979;BME280;44763;50.464;30.612;2023-05-19T12:25:33;100974.92;;;21.13;59.33
58979;BME280;44763;50.464;30.612;2023-05-19T12:28:01;100974.44;;;21.13;59.37
58979;BME280;44763;50.464;30.612;2023-05-19T12:30:31;100973.45;;;21.10;58.01
58979;BME280;44763;50.464;30.612;2023-05-19T12:33:01;100975.66;;;21.09;57.16
58979;BME280;44763;50.464;30.612;2023-05-19T12:35:30;100962.63;;;20.99;57.67
58979;BME280;44763;50.464;30.612;2023-05-19T12:38:03;100984.08;;;21.01;58.21
58979;BME280;44763;50.464;30.612;2023-05-19T12:40:32;100972.40;;;20.94;58.73
58979;BME280;44763;50.464;30.612;2023-05-19T12:43:01;100976.87;;;20.90;60.07
58979;BME280;44763;50.464;30.612;2023-05-19T12:45:35;100974.46;;;20.91;61.13
58979;BME280;44763;50.464;30.612;2023-05-19T12:48:04;100975.70;;;21.00;61.00
58979;BME280;44763;50.464;30.612;2023-05-19T12:50:32;100971.77;;;21.10;59.76
58979;BME280;44763;50.464;30.612;2023-05-19T12:53:00;100959.13;;;21.06;59.16
58979;BME280;44763;50.464;30.612;2023-05-19T12:55:28;100958.75;;;21.06;58.38
58979;BME280;44763;50.464;30.612;2023-05-19T12:57:56;100971.87;;;21.13;58.99
58979;BME280;44763;50.464;30.612;2023-05-19T13:00:24;100969.57;;;21.05;60.45
58979;BME280;44763;50.464;30.612;2023-05-19T13:05:36;100970.02;;;20.91;62.09
58979;BME280;44763;50.464;30.612;2023-05-19T13:08:07;100969.14;;;20.86;62.23
58979;BME280;44763;50.464;30.612;2023-05-19T13:10:36;100964.55;;;20.81;63.19
58979;BME280;44763;50.464;30.612;2023-05-19T13:13:03;100964.05;;;20.79;63.88
58979;BME280;44763;50.464;30.612;2023-05-19T13:15:32;100965.70;;;20.78;64.92
58979;BME280;44763;50.464;30.612;2023-05-19T13:18:01;100970.73;;;20.69;66.16